Time;durP1;ratioP1;P1;durP2;ratioP2;P2;SDS_P1;SDS_P2;PMS_P1;PMS_P2;Temp;Humidity;BMP_temperature;BMP_pressure;BME280_temperature;BME280_humidity;BME280_pressure;Samples;Min_cycle;Max_cycle;Signal;HPM_P1;HPM_P2
2022/01/29 00:01:05;;;;;;;41.47;24.25;;;6.50;88.40;;;;;;5039250;28;20042;-44
2022/01/29 00:03:31;;;;;;;40.95;23.02;;;6.40;88.60;;;;;;5039939;28;20041;-44
2022/01/29 00:05:58;;;;;;;37.08;22.35;;;6.40;88.80;;;;;;5037961;28;20030;-47
2022/01/29 00:08:25;;;;;;;41.47;23.45;;;6.40;88.90;;;;;;5039196;28;20017;-45
2022/01/29 00:10:55;;;;;;;41.67;23.52;;;6.40;89.00;;;;;;5034537;28;20072;-43
2022/01/29 00:13:23;;;;;;;38.38;24.70;;;6.40;89.10;;;;;;5036061;28;20022;-45
2022/01/29 00:15:49;;;;;;;40.65;24.10;;;6.40;89.10;;;;;;5036027;28;20026;-46
2022/01/29 00:18:17;;;;;;;45.88;25.58;;;6.40;89.30;;;;;;5035109;28;20044;-45
2022/01/29 00:20:43;;;;;;;40.17;23.08;;;6.40;89.40;;;;;;5035530;28;20034;-44
2022/01/29 00:23:08;;;;;;;36.55;25.35;;;6.40;89.50;;;;;;5035516;28;20040;-44
2022/01/29 00:25:34;;;;;;;41.33;26.27;;;6.40;89.60;;;;;;5035409;28;20052;-46
2022/01/29 00:28:00;;;;;;;40.45;24.85;;;6.40;89.60;;;;;;5034554;28;20061;-45
2022/01/29 00:30:32;;;;;;;34.97;25.35;;;6.40;89.70;;;;;;5035393;28;20447;-51
2022/01/29 00:32:57;;;;;;;37.97;26.00;;;6.40;89.80;;;;;;5035206;28;20410;-46
2022/01/29 00:35:23;;;;;;;37.75;26.08;;;6.40;89.90;;;;;;5035232;28;20458;-46
2022/01/29 00:37:49;;;;;;;38.92;26.67;;;6.40;90.00;;;;;;5036088;28;20046;-47
2022/01/29 00:40:16;;;;;;;37.85;26.00;;;6.40;90.20;;;;;;5034695;28;20431;-48
2022/01/29 00:42:44;;;;;;;46.50;26.90;;;6.40;90.20;;;;;;5035807;28;20037;-46
2022/01/29 00:45:12;;;;;;;42.22;26.35;;;6.40;90.40;;;;;;5035590;28;20041;-47
2022/01/29 00:47:38;;;;;;;45.22;26.00;;;6.40;90.40;;;;;;5035272;28;20037;-47
2022/01/29 00:50:04;;;;;;;47.20;26.63;;;6.40;90.50;;;;;;5035522;28;20033;-47
2022/01/29 00:52:32;;;;;;;41.45;26.35;;;6.40;90.60;;;;;;5035546;28;20036;-49
2022/01/29 00:54:58;;;;;;;34.80;24.80;;;6.40;90.70;;;;;;5035198;28;20063;-48
2022/01/29 00:57:27;;;;;;;39.47;26.38;;;6.40;90.80;;;;;;5035257;28;20091;-51
2022/01/29 00:59:53;;;;;;;;;;;6.40;90.90;;;;;;5034653;28;20029;-50
2022/01/29 01:02:18;;;;;;;42.17;27.73;;;6.40;91.00;;;;;;5034795;28;20546;-52
2022/01/29 01:04:44;;;;;;;40.45;25.98;;;6.40;91.10;;;;;;5034578;28;20034;-51
2022/01/29 01:07:10;;;;;;;43.88;27.45;;;6.40;91.20;;;;;;5035053;28;20041;-49
2022/01/29 01:09:36;;;;;;;42.83;25.70;;;6.40;91.10;;;;;;5035291;28;20040;-52
2022/01/29 01:12:02;;;;;;;38.65;25.70;;;6.40;91.20;;;;;;5035329;28;20021;-50
2022/01/29 01:14:28;;;;;;;48.25;28.25;;;6.40;91.40;;;;;;5034744;28;20034;-52
2022/01/29 01:16:56;;;;;;;47.88;28.15;;;6.40;91.40;;;;;;5033978;28;20119;-49
2022/01/29 01:19:25;;;;;;;43.05;27.60;;;6.40;91.50;;;;;;5034921;28;20459;-52
2022/01/29 01:21:53;;;;;;;47.97;27.20;;;6.40;91.50;;;;;;5034975;28;20179;-49
2022/01/29 01:24:18;;;;;;;40.72;26.90;;;6.40;91.60;;;;;;5034352;28;20116;-50
2022/01/29 01:26:46;;;;;;;42.88;28.13;;;6.40;91.70;;;;;;5034811;28;20164;-48
2022/01/29 01:29:12;;;;;;;50.65;29.95;;;6.40;91.70;;;;;;5036037;28;20517;-48
2022/01/29 01:31:39;;;;;;;46.35;27.38;;;6.40;91.80;;;;;;5019040;28;20038;-49
2022/01/29 01:34:06;;;;;;;47.88;28.70;;;6.40;91.90;;;;;;5044529;28;20115;-49
2022/01/29 01:36:35;;;;;;;39.22;27.75;;;6.40;91.80;;;;;;5034119;28;20022;-48
2022/01/29 01:39:08;;;;;;;45.80;27.60;;;6.40;91.90;;;;;;5034378;28;20052;-49
2022/01/29 01:41:40;;;;;;;43.80;26.90;;;6.40;91.90;;;;;;5034940;28;20038;-47
2022/01/29 01:44:11;;;;;;;50.33;28.33;;;6.40;91.90;;;;;;5034481;28;20041;-48
2022/01/29 01:46:37;;;;;;;49.88;28.50;;;6.40;91.80;;;;;;5034425;28;20442;-47
2022/01/29 01:49:02;;;;;;;40.95;27.70;;;6.40;91.90;;;;;;5034242;28;20038;-49
2022/01/29 01:51:30;;;;;;;44.08;28.80;;;6.50;92.00;;;;;;5030475;28;20454;-48
2022/01/29 01:53:55;;;;;;;49.22;27.77;;;6.50;91.90;;;;;;5017087;28;20697;-48
2022/01/29 01:56:21;;;;;;;42.10;27.77;;;6.50;91.90;;;;;;5033833;28;20026;-47
2022/01/29 01:58:47;;;;;;;50.83;28.67;;;6.50;92.00;;;;;;5034077;28;20087;-47
2022/01/29 02:01:13;;;;;;;47.42;28.05;;;6.50;91.90;;;;;;5034212;28;20064;-48
2022/01/29 02:03:39;;;;;;;39.95;27.50;;;6.60;91.90;;;;;;5034081;28;20036;-48
2022/01/29 02:06:06;;;;;;;42.28;27.30;;;6.60;91.90;;;;;;5033307;28;20029;-48
2022/01/29 02:08:34;;;;;;;43.90;26.25;;;6.60;91.90;;;;;;5033600;28;20108;-48
2022/01/29 02:11:06;;;;;;;43.78;28.40;;;6.60;91.90;;;;;;5033739;28;20320;-47
2022/01/29 02:13:33;;;;;;;41.35;27.65;;;6.60;91.90;;;;;;5032687;28;20143;-50
2022/01/29 02:16:01;;;;;;;45.95;28.48;;;6.70;92.00;;;;;;5033504;28;20025;-50
2022/01/29 02:18:27;;;;;;;36.60;27.13;;;6.70;92.00;;;;;;5033161;28;20022;-49
2022/01/29 02:20:57;;;;;;;47.78;27.90;;;6.70;91.90;;;;;;5033431;28;20435;-47
2022/01/29 02:23:23;;;;;;;44.22;26.60;;;6.70;92.00;;;;;;5032266;28;20100;-48
2022/01/29 02:25:49;;;;;;;39.13;27.83;;;6.80;91.90;;;;;;5032893;28;20418;-47
2022/01/29 02:28:18;;;;;;;38.35;26.02;;;6.80;91.90;;;;;;5032193;28;20030;-47
2022/01/29 02:30:47;;;;;;;39.05;26.27;;;6.80;91.90;;;;;;5033291;28;20040;-51
2022/01/29 02:33:15;;;;;;;39.08;27.77;;;6.90;91.90;;;;;;5032859;28;20025;-47
2022/01/29 02:35:43;;;;;;;48.50;28.80;;;6.90;91.90;;;;;;5032175;28;20049;-47
2022/01/29 02:38:09;;;;;;;40.67;26.85;;;6.90;91.90;;;;;;5032555;28;20060;-48
2022/01/29 02:40:43;;;;;;;39.22;26.45;;;6.90;91.90;;;;;;5032759;28;20413;-46
2022/01/29 02:43:11;;;;;;;40.83;26.55;;;6.90;92.00;;;;;;5033138;28;20018;-48
2022/01/29 02:45:36;;;;;;;35.78;25.25;;;6.90;92.00;;;;;;5032702;28;20480;-47
2022/01/29 02:48:02;;;;;;;38.22;27.60;;;6.90;92.10;;;;;;5033074;28;20033;-47
2022/01/29 02:50:28;;;;;;;44.50;28.30;;;6.90;92.00;;;;;;5033221;28;20072;-47
2022/01/29 02:52:53;;;;;;;42.45;27.70;;;6.90;92.00;;;;;;5032501;28;20407;-47
2022/01/29 02:55:19;;;;;;;46.65;27.23;;;6.90;92.10;;;;;;5031907;28;20053;-47
2022/01/29 02:57:44;;;;;;;46.50;28.15;;;7.00;92.10;;;;;;5033163;28;20147;-48
2022/01/29 03:00:13;;;;;;;41.10;25.60;;;7.00;92.20;;;;;;5012618;28;20091;-46
2022/01/29 03:02:39;;;;;;;42.63;25.93;;;7.10;92.20;;;;;;5022987;28;20037;-46
2022/01/29 03:05:05;;;;;;;43.38;26.10;;;7.10;92.10;;;;;;5033162;28;20047;-46
2022/01/29 03:07:30;;;;;;;41.33;25.25;;;7.10;92.10;;;;;;5031643;28;20030;-47
2022/01/29 03:09:56;;;;;;;34.85;24.13;;;7.10;92.00;;;;;;5031991;28;20034;-48
2022/01/29 03:12:21;;;;;;;46.20;25.15;;;7.10;92.10;;;;;;5032725;28;20390;-47
2022/01/29 03:14:47;;;;;;;38.05;25.23;;;7.10;92.10;;;;;;5032584;28;20039;-46
2022/01/29 03:17:12;;;;;;;30.58;23.23;;;7.20;92.00;;;;;;5033048;28;20406;-47
2022/01/29 03:19:43;;;;;;;35.60;23.40;;;7.20;92.00;;;;;;5031980;28;20120;-45
2022/01/29 03:22:11;;;;;;;40.85;22.70;;;7.30;92.10;;;;;;5032809;28;20088;-45
2022/01/29 03:24:36;;;;;;;46.72;24.70;;;7.30;92.00;;;;;;5031862;28;20124;-45
2022/01/29 03:27:02;;;;;;;44.03;22.23;;;7.30;91.90;;;;;;5032242;28;20112;-46
2022/01/29 03:29:28;;;;;;;36.35;22.20;;;7.40;91.90;;;;;;5032994;28;20037;-45
2022/01/29 03:31:54;;;;;;;34.35;21.90;;;7.40;91.80;;;;;;5033022;28;20041;-47
2022/01/29 03:34:19;;;;;;;32.38;23.33;;;7.40;91.70;;;;;;5032032;28;20056;-45
2022/01/29 03:36:45;;;;;;;31.27;21.77;;;7.40;91.60;;;;;;5032599;28;20425;-48
2022/01/29 03:39:14;;;;;;;36.55;21.08;;;7.50;91.50;;;;;;5032590;28;20443;-48
2022/01/29 03:41:39;;;;;;;32.38;21.63;;;7.50;91.50;;;;;;5032927;28;20117;-48
2022/01/29 03:44:07;;;;;;;33.53;20.48;;;7.50;91.40;;;;;;5032656;28;20112;-46
2022/01/29 03:46:33;;;;;;;41.70;21.00;;;7.50;91.30;;;;;;5036663;28;20034;-45
2022/01/29 03:48:59;;;;;;;37.05;20.88;;;7.60;91.40;;;;;;5036508;28;20103;-45
2022/01/29 03:51:27;;;;;;;35.78;19.25;;;7.60;91.30;;;;;;5036655;28;20029;-49
2022/01/29 03:53:53;;;;;;;42.75;21.55;;;7.60;91.30;;;;;;5036839;28;20125;-49
2022/01/29 03:56:19;;;;;;;32.88;18.65;;;7.60;91.30;;;;;;5036439;28;20112;-47
2022/01/29 03:58:46;;;;;;;34.13;22.42;;;7.60;91.30;;;;;;5046807;28;20060;-47
2022/01/29 04:01:12;;;;;;;36.08;18.60;;;7.60;91.30;;;;;;5036621;28;20045;-46
2022/01/29 04:03:38;;;;;;;29.02;19.90;;;7.60;91.30;;;;;;5034978;28;20041;-47
2022/01/29 04:06:03;;;;;;;33.20;23.05;;;7.70;91.30;;;;;;5035679;28;20077;-44
2022/01/29 04:08:31;;;;;;;47.55;26.25;;;7.70;91.20;;;;;;5036081;28;20033;-46
2022/01/29 04:10:56;;;;;;;33.45;19.77;;;7.70;91.20;;;;;;5035194;28;20446;-46
2022/01/29 04:13:25;;;;;;;34.47;18.73;;;7.70;91.10;;;;;;5036499;28;20033;-45
2022/01/29 04:15:50;;;;;;;37.05;19.45;;;7.70;91.20;;;;;;5036061;28;20025;-48
2022/01/29 04:18:16;;;;;;;31.58;19.08;;;7.80;91.20;;;;;;5036248;28;20064;-48
2022/01/29 04:20:43;;;;;;;30.30;18.17;;;7.80;91.20;;;;;;5034861;28;20034;-45
2022/01/29 04:23:09;;;;;;;35.90;19.27;;;7.80;91.20;;;;;;5035139;28;20025;-45
2022/01/29 04:25:35;;;;;;;31.00;19.88;;;7.80;91.10;;;;;;5035766;28;20473;-47
2022/01/29 04:28:01;;;;;;;28.08;18.77;;;7.80;91.10;;;;;;5034414;28;20115;-47
2022/01/29 04:33:02;;;;;;;32.42;18.25;;;7.80;91.00;;;;;;5035627;28;20142;-45
2022/01/29 04:35:29;;;;;;;36.45;19.15;;;7.90;91.00;;;;;;5035007;28;20108;-45
2022/01/29 04:37:55;;;;;;;32.95;18.50;;;7.90;91.00;;;;;;5035823;28;20037;-45
2022/01/29 04:40:21;;;;;;;28.15;20.00;;;7.90;91.00;;;;;;5035906;28;20036;-44
2022/01/29 04:42:47;;;;;;;30.10;18.27;;;7.90;91.00;;;;;;5035237;28;20449;-44
2022/01/29 04:45:13;;;;;;;34.25;18.45;;;7.90;91.00;;;;;;5033260;28;20391;-45
2022/01/29 04:47:39;;;;;;;30.92;18.17;;;7.90;90.90;;;;;;5035050;28;20041;-44
2022/01/29 04:50:06;;;;;;;30.98;16.98;;;7.90;90.90;;;;;;5035006;28;20396;-45
2022/01/29 04:52:31;;;;;;;30.25;18.10;;;8.00;90.80;;;;;;5034154;28;20038;-48
2022/01/29 04:55:00;;;;;;;31.45;18.77;;;7.90;90.80;;;;;;5034830;28;20402;-47
2022/01/29 04:57:25;;;;;;;36.08;18.88;;;8.00;90.80;;;;;;5034846;28;20029;-44
2022/01/29 04:59:53;;;;;;;30.23;18.35;;;8.00;90.80;;;;;;5033923;28;20029;-44
2022/01/29 05:02:19;;;;;;;29.13;17.70;;;8.00;90.80;;;;;;5034225;28;20026;-44
2022/01/29 05:04:44;;;;;;;28.25;18.08;;;8.00;90.80;;;;;;5034989;28;20119;-45
2022/01/29 05:07:10;;;;;;;30.25;18.38;;;8.00;90.80;;;;;;5034652;28;20030;-44
2022/01/29 05:09:38;;;;;;;34.88;19.85;;;8.10;90.70;;;;;;5035538;28;20065;-45
2022/01/29 05:12:04;;;;;;;35.30;19.75;;;8.10;90.80;;;;;;5035296;28;20030;-45
2022/01/29 05:14:58;;;;;;;27.77;17.23;;;8.10;90.70;;;;;;5033584;28;20068;-45
2022/01/29 05:28:07;;;;;;;31.17;18.63;;;8.10;91.00;;;;;;5032621;28;20083;-45
2022/01/29 05:30:33;;;;;;;33.63;20.95;;;8.10;91.20;;;;;;5034414;28;20029;-44
2022/01/29 05:33:03;;;;;;;33.03;20.05;;;8.10;91.20;;;;;;5034650;28;20431;-44
2022/01/29 05:35:28;;;;;;;44.20;21.00;;;8.10;91.30;;;;;;5034453;28;20041;-45
2022/01/29 05:37:55;;;;;;;35.55;22.83;;;8.10;91.30;;;;;;5034094;28;20079;-46
2022/01/29 05:40:23;;;;;;;29.58;20.00;;;8.10;91.40;;;;;;5033783;28;20075;-45
2022/01/29 05:42:49;;;;;;;30.75;20.00;;;8.00;91.50;;;;;;5034474;28;20037;-46
2022/01/29 05:45:14;;;;;;;30.20;20.88;;;8.00;91.70;;;;;;5034397;28;20072;-47
2022/01/29 05:47:40;;;;;;;37.30;20.08;;;8.00;91.80;;;;;;5033866;28;20042;-44
2022/01/29 05:50:06;;;;;;;35.80;22.15;;;8.00;91.80;;;;;;5033834;28;20034;-47
2022/01/29 05:52:32;;;;;;;35.85;22.83;;;8.00;91.80;;;;;;5034066;28;20037;-45
2022/01/29 05:54:58;;;;;;;32.20;22.88;;;8.00;91.90;;;;;;5033746;28;20033;-48
2022/01/29 05:57:23;;;;;;;35.67;22.27;;;8.00;91.90;;;;;;5032569;28;20033;-44
2022/01/29 05:59:49;;;;;;;28.45;19.95;;;8.00;91.90;;;;;;5033527;28;20095;-45
2022/01/29 06:02:15;;;;;;;34.38;21.30;;;8.00;92.00;;;;;;5033699;28;20463;-43
2022/01/29 06:04:40;;;;;;;33.28;22.50;;;8.10;91.90;;;;;;5033627;28;20041;-43
2022/01/29 06:07:06;;;;;;;31.67;21.85;;;8.10;92.00;;;;;;5032136;28;20459;-44
2022/01/29 06:09:31;;;;;;;35.22;22.13;;;8.10;92.00;;;;;;5033989;28;20026;-44
2022/01/29 06:11:57;;;;;;;33.28;21.85;;;8.10;92.00;;;;;;5034082;28;20425;-45
2022/01/29 06:14:25;;;;;;;41.53;24.80;;;8.10;91.90;;;;;;5033646;28;20120;-45
2022/01/29 06:16:50;;;;;;;34.28;22.38;;;8.10;92.00;;;;;;5033806;28;20041;-46
2022/01/29 06:19:18;;;;;;;32.92;22.48;;;8.10;92.00;;;;;;5033569;28;20052;-45
2022/01/29 06:21:44;;;;;;;34.10;22.38;;;8.10;92.10;;;;;;5034173;28;20037;-44
2022/01/29 06:24:10;;;;;;;32.53;21.92;;;8.10;92.00;;;;;;5033244;28;20410;-44
2022/01/29 06:26:35;;;;;;;36.70;23.35;;;8.10;92.00;;;;;;5032487;28;20030;-44
2022/01/29 06:29:04;;;;;;;33.22;20.40;;;8.10;92.00;;;;;;5031715;28;20037;-44
2022/01/29 06:31:30;;;;;;;27.75;19.52;;;8.10;92.00;;;;;;5033744;28;20033;-44
2022/01/29 06:34:00;;;;;;;33.85;21.58;;;8.10;92.10;;;;;;5033447;28;20041;-45
2022/01/29 06:36:26;;;;;;;29.33;20.25;;;8.10;92.10;;;;;;5033292;28;20041;-45
2022/01/29 06:38:51;;;;;;;34.17;22.15;;;8.10;92.00;;;;;;5033689;28;20030;-46
2022/01/29 06:41:17;;;;;;;30.98;20.42;;;8.10;92.10;;;;;;5033016;28;20043;-45
2022/01/29 06:43:42;;;;;;;29.70;19.50;;;8.10;92.20;;;;;;5033414;28;20034;-44
2022/01/29 06:46:10;;;;;;;33.13;21.65;;;8.10;92.20;;;;;;5033481;28;20057;-44
2022/01/29 06:48:36;;;;;;;35.30;22.48;;;8.20;92.30;;;;;;5033343;28;20383;-45
2022/01/29 06:51:02;;;;;;;38.67;20.90;;;8.20;92.20;;;;;;5033682;28;20029;-45
2022/01/29 06:53:27;;;;;;;32.90;21.00;;;8.20;92.30;;;;;;5032073;28;20120;-44
2022/01/29 06:55:53;;;;;;;32.40;20.67;;;8.20;92.20;;;;;;5033389;28;20037;-45
2022/01/29 06:58:18;;;;;;;36.72;20.50;;;8.20;92.20;;;;;;5033233;28;20037;-44
2022/01/29 07:00:44;;;;;;;30.23;19.75;;;8.20;92.20;;;;;;5033059;28;20390;-45
2022/01/29 07:03:12;;;;;;;30.20;18.65;;;8.20;92.10;;;;;;5033388;28;20025;-44
2022/01/29 07:05:37;;;;;;;29.58;20.65;;;8.20;92.10;;;;;;5032263;28;20033;-45
2022/01/29 07:08:04;;;;;;;34.60;21.13;;;8.20;92.10;;;;;;5033569;28;20316;-47
2022/01/29 07:10:30;;;;;;;35.58;21.33;;;8.20;92.20;;;;;;5033586;28;20044;-45
2022/01/29 07:12:58;;;;;;;30.60;20.67;;;8.20;92.10;;;;;;5032648;28;20029;-48
2022/01/29 07:15:23;;;;;;;31.35;19.58;;;8.20;92.20;;;;;;5032321;28;20033;-43
2022/01/29 07:17:49;;;;;;;36.45;20.55;;;8.20;92.10;;;;;;5032866;28;20485;-47
2022/01/29 07:20:14;;;;;;;32.28;20.45;;;8.20;92.20;;;;;;5035487;28;20033;-46
2022/01/29 07:22:40;;;;;;;36.35;20.77;;;8.20;92.10;;;;;;5037044;28;20037;-44
2022/01/29 07:25:07;;;;;;;29.98;19.10;;;8.20;92.20;;;;;;5036421;28;20484;-43
2022/01/29 07:27:33;;;;;;;29.73;18.85;;;8.20;92.20;;;;;;5036910;28;20108;-45
2022/01/29 07:29:59;;;;;;;31.08;19.30;;;8.20;92.20;;;;;;5036263;28;20527;-45
2022/01/29 07:32:27;;;;;;;28.33;19.27;;;8.30;92.20;;;;;;5036934;28;20045;-43
2022/01/29 07:34:54;;;;;;;25.20;18.10;;;8.30;92.20;;;;;;5036724;28;20037;-44
2022/01/29 07:37:20;;;;;;;25.23;18.30;;;8.30;92.20;;;;;;5036542;28;20033;-45
2022/01/29 07:39:45;;;;;;;27.10;17.92;;;8.30;92.20;;;;;;5036581;28;20365;-45
2022/01/29 07:42:11;;;;;;;29.77;19.23;;;8.20;92.20;;;;;;5036743;28;20045;-45
2022/01/29 07:44:36;;;;;;;26.95;19.13;;;8.20;92.20;;;;;;5035626;28;20363;-45
2022/01/29 07:47:02;;;;;;;26.80;17.83;;;8.20;92.20;;;;;;5036730;28;20049;-45
2022/01/29 07:49:28;;;;;;;28.20;19.60;;;8.20;92.20;;;;;;5036593;28;20033;-44
2022/01/29 07:51:54;;;;;;;26.73;18.95;;;8.30;92.30;;;;;;5036764;28;20033;-45
2022/01/29 07:54:19;;;;;;;28.75;18.42;;;8.30;92.30;;;;;;5035846;28;20358;-44
2022/01/29 07:56:45;;;;;;;27.75;17.65;;;8.30;92.20;;;;;;5036285;28;20032;-45
2022/01/29 07:59:10;;;;;;;25.60;17.45;;;8.30;92.20;;;;;;5036385;28;20041;-45
2022/01/29 08:01:38;;;;;;;30.65;18.35;;;8.30;92.20;;;;;;5044013;28;20125;-44
2022/01/29 08:04:04;;;;;;;26.25;17.23;;;8.30;92.20;;;;;;5034418;28;20041;-45
2022/01/29 08:06:30;;;;;;;23.50;17.17;;;8.40;92.20;;;;;;5035619;28;20371;-44
2022/01/29 08:08:58;;;;;;;25.13;18.10;;;8.40;92.20;;;;;;5034526;28;20436;-45
2022/01/29 08:11:27;;;;;;;23.35;16.35;;;8.40;92.10;;;;;;5035431;28;20030;-44
2022/01/29 08:13:53;;;;;;;27.95;18.17;;;8.40;92.10;;;;;;5035412;28;20045;-45
2022/01/29 08:16:19;;;;;;;29.98;17.85;;;8.40;92.10;;;;;;5035246;28;20068;-46
2022/01/29 08:18:45;;;;;;;29.52;18.58;;;8.40;92.20;;;;;;5035150;28;20102;-44
2022/01/29 08:21:13;;;;;;;22.70;16.40;;;8.40;92.10;;;;;;5035431;28;20045;-46
2022/01/29 08:23:39;;;;;;;26.42;16.60;;;8.40;92.20;;;;;;5032631;28;20116;-43
2022/01/29 08:26:07;;;;;;;23.70;17.13;;;8.40;92.10;;;;;;5035388;28;20057;-44
2022/01/29 08:28:33;;;;;;;29.23;17.08;;;8.40;92.10;;;;;;5034168;28;20442;-44
2022/01/29 08:30:59;;;;;;;26.20;16.35;;;8.40;92.10;;;;;;5033888;28;20034;-44
2022/01/29 08:33:24;;;;;;;26.38;16.30;;;8.50;92.20;;;;;;5034073;28;20029;-43
2022/01/29 08:35:50;;;;;;;23.25;15.32;;;8.40;92.20;;;;;;5035136;28;20029;-46
2022/01/29 08:38:16;;;;;;;24.45;15.30;;;8.50;92.10;;;;;;5035463;28;20029;-44
2022/01/29 08:40:41;;;;;;;21.90;14.90;;;8.50;92.10;;;;;;5033349;28;20079;-49
2022/01/29 08:43:11;;;;;;;23.33;14.20;;;8.50;92.10;;;;;;5034757;28;20060;-44
2022/01/29 08:45:36;;;;;;;20.85;14.27;;;8.50;92.00;;;;;;5034674;28;20068;-44
2022/01/29 08:48:02;;;;;;;22.38;14.18;;;8.50;92.10;;;;;;5033725;28;20528;-44
2022/01/29 08:50:28;;;;;;;24.27;15.23;;;8.50;92.10;;;;;;5034694;28;20026;-45
2022/01/29 08:52:53;;;;;;;23.83;15.93;;;8.50;92.10;;;;;;5034308;28;20109;-43
2022/01/29 08:55:20;;;;;;;19.42;15.68;;;8.50;92.10;;;;;;5034706;28;20454;-44
2022/01/29 08:57:45;;;;;;;24.85;16.15;;;8.50;92.20;;;;;;5034380;28;20423;-45
2022/01/29 09:00:12;;;;;;;24.25;15.23;;;8.50;92.20;;;;;;5033485;28;20033;-44
2022/01/29 09:02:40;;;;;;;20.77;14.77;;;8.50;92.20;;;;;;5034531;28;20052;-44
2022/01/29 09:05:06;;;;;;;23.92;15.48;;;8.50;92.20;;;;;;5033265;28;20040;-45
2022/01/29 09:07:35;;;;;;;23.48;14.88;;;8.50;92.20;;;;;;5034692;28;20035;-43
2022/01/29 09:10:01;;;;;;;20.23;14.43;;;8.50;92.20;;;;;;5035161;28;20038;-44
2022/01/29 09:12:26;;;;;;;25.80;16.30;;;8.50;92.20;;;;;;5034186;28;20040;-44
2022/01/29 09:14:52;;;;;;;21.05;14.70;;;8.60;92.20;;;;;;5034584;28;20072;-45
2022/01/29 09:17:17;;;;;;;23.42;15.20;;;8.60;92.10;;;;;;5035056;28;20037;-45
2022/01/29 09:19:43;;;;;;;23.67;16.17;;;8.60;92.00;;;;;;5034740;28;20042;-45
2022/01/29 09:22:09;;;;;;;26.58;15.07;;;8.60;91.90;;;;;;5034037;28;20041;-47
2022/01/29 09:24:34;;;;;;;20.65;13.98;;;8.60;91.90;;;;;;5035121;28;20030;-47
2022/01/29 09:27:00;;;;;;;23.02;14.57;;;8.60;91.80;;;;;;5034019;28;20021;-45
2022/01/29 09:29:26;;;;;;;23.42;14.98;;;8.70;91.70;;;;;;5033406;28;20049;-45
2022/01/29 09:31:52;;;;;;;32.10;15.40;;;8.80;91.60;;;;;;5032281;28;20042;-43
2022/01/29 09:34:17;;;;;;;21.13;13.70;;;8.70;91.40;;;;;;5032584;28;20037;-43
2022/01/29 09:36:43;;;;;;;17.15;14.35;;;8.90;91.10;;;;;;5033973;28;20029;-43
2022/01/29 09:39:11;;;;;;;19.40;12.70;;;8.90;90.90;;;;;;5023577;28;20033;-44
2022/01/29 09:41:41;;;;;;;22.48;14.43;;;8.90;90.80;;;;;;5023851;28;20045;-47
2022/01/29 09:44:07;;;;;;;19.52;11.25;;;8.90;90.60;;;;;;5031993;28;20068;-46
2022/01/29 09:46:33;;;;;;;15.95;10.00;;;8.90;90.30;;;;;;5032682;28;20049;-44
2022/01/29 09:48:59;;;;;;;19.10;12.10;;;9.00;90.20;;;;;;5032596;28;20029;-43
2022/01/29 09:51:26;;;;;;;14.68;9.57;;;9.00;90.10;;;;;;5033288;28;20063;-44
2022/01/29 09:53:52;;;;;;;17.20;9.45;;;9.00;90.00;;;;;;5033771;28;20040;-44
2022/01/29 09:56:18;;;;;;;15.98;9.27;;;9.10;89.70;;;;;;5034331;28;20038;-45
2022/01/29 09:58:46;;;;;;;14.65;8.80;;;9.10;89.60;;;;;;5033177;28;20060;-44
2022/01/29 10:01:12;;;;;;;13.60;8.80;;;9.20;89.50;;;;;;5034096;28;20640;-44
2022/01/29 10:03:40;;;;;;;17.42;8.27;;;9.20;89.40;;;;;;5033355;28;20097;-44
2022/01/29 10:06:15;;;;;;;15.80;8.25;;;9.20;89.20;;;;;;5032916;28;20219;-44
2022/01/29 10:08:42;;;;;;;11.02;6.25;;;9.20;89.10;;;;;;5033770;28;20413;-43
2022/01/29 10:11:24;;;;;;;13.52;8.13;;;9.30;88.90;;;;;;5033981;28;20061;-44
2022/01/29 10:13:51;;;;;;;16.88;7.80;;;9.40;88.90;;;;;;5033529;28;20351;-44
2022/01/29 10:16:28;;;;;;;12.35;7.53;;;9.40;88.70;;;;;;5033965;28;20067;-43
2022/01/29 10:19:02;;;;;;;11.05;6.60;;;9.50;88.70;;;;;;5033482;28;20037;-44
2022/01/29 10:21:37;;;;;;;12.73;6.25;;;9.50;88.50;;;;;;5034016;28;20033;-43
2022/01/29 10:24:24;;;;;;;15.93;7.00;;;9.50;88.30;;;;;;5032560;28;20522;-44
2022/01/29 10:26:51;;;;;;;11.98;7.13;;;9.50;88.30;;;;;;5033720;28;20388;-44
2022/01/29 10:29:19;;;;;;;17.02;6.13;;;9.60;88.20;;;;;;5033300;28;20082;-44
2022/01/29 10:31:53;;;;;;;12.00;6.53;;;9.60;88.10;;;;;;5033746;28;20021;-45
2022/01/29 10:34:26;;;;;;;13.80;5.65;;;9.60;88.00;;;;;;5033103;28;20025;-46
2022/01/29 10:37:18;;;;;;;11.30;5.55;;;9.60;88.00;;;;;;5030104;28;20033;-43
2022/01/29 10:40:08;;;;;;;8.00;4.93;;;9.60;87.80;;;;;;5029484;28;20021;-47
2022/01/29 10:42:38;;;;;;;11.82;5.78;;;9.70;87.60;;;;;;5026468;28;20056;-44
2022/01/29 10:45:10;;;;;;;8.05;5.70;;;9.70;87.70;;;;;;5031794;28;20133;-45
2022/01/29 10:47:52;;;;;;;9.65;5.20;;;9.70;87.70;;;;;;5032281;28;20062;-46
2022/01/29 10:50:18;;;;;;;9.50;5.68;;;9.70;87.50;;;;;;5032507;28;20395;-45
2022/01/29 10:52:43;;;;;;;13.18;5.78;;;9.70;87.50;;;;;;5031331;28;20021;-45
2022/01/29 10:55:09;;;;;;;10.73;4.95;;;9.70;87.50;;;;;;5031739;28;20091;-46
2022/01/29 10:57:39;;;;;;;8.48;5.25;;;9.80;87.40;;;;;;5031559;28;20443;-44
2022/01/29 11:00:15;;;;;;;12.68;6.30;;;9.80;87.40;;;;;;5031941;28;20029;-45
2022/01/29 11:02:41;;;;;;;9.13;5.28;;;9.80;87.40;;;;;;5029639;28;20033;-45
2022/01/29 11:05:07;;;;;;;9.50;5.38;;;9.80;87.40;;;;;;5031116;28;20033;-46
2022/01/29 11:07:34;;;;;;;9.10;5.05;;;9.80;87.30;;;;;;5032778;28;20125;-45
2022/01/29 11:10:04;;;;;;;9.43;5.47;;;9.80;87.10;;;;;;5032453;28;20037;-46
2022/01/29 11:12:30;;;;;;;9.73;6.07;;;9.80;87.20;;;;;;5033068;28;20446;-45
2022/01/29 11:15:02;;;;;;;10.55;5.78;;;9.80;87.30;;;;;;5032429;28;20124;-45
2022/01/29 11:17:31;;;;;;;8.82;5.47;;;9.70;87.20;;;;;;5032954;28;20033;-45
2022/01/29 11:19:58;;;;;;;10.80;4.78;;;9.80;87.10;;;;;;5033054;28;20036;-46
2022/01/29 11:22:40;;;;;;;8.52;4.28;;;9.70;87.10;;;;;;5031655;28;20037;-45
2022/01/29 11:25:09;;;;;;;7.35;4.10;;;9.80;86.80;;;;;;5032544;28;20075;-45
2022/01/29 11:27:39;;;;;;;12.35;4.32;;;9.80;86.80;;;;;;5033181;28;20040;-49
2022/01/29 11:30:04;;;;;;;;;;;9.90;86.60;;;;;;5033516;28;20022;-49
2022/01/29 11:32:35;;;;;;;12.45;5.55;;;9.80;86.50;;;;;;5032077;28;20389;-46
2022/01/29 11:35:01;;;;;;;14.73;6.80;;;9.90;86.30;;;;;;5032611;28;20040;-45
2022/01/29 11:37:42;;;;;;;10.43;5.05;;;9.90;86.30;;;;;;5032411;28;20022;-46
2022/01/29 11:40:45;;;;;;;12.30;5.70;;;9.90;86.50;;;;;;5031574;28;20025;-45
2022/01/29 11:43:19;;;;;;;16.58;5.97;;;9.90;86.30;;;;;;5030643;28;20042;-46
2022/01/29 11:46:04;;;;;;;8.50;5.40;;;9.90;86.30;;;;;;5032165;28;20110;-48
2022/01/29 11:48:31;;;;;;;10.60;3.95;;;9.90;86.00;;;;;;5031340;28;20032;-48
2022/01/29 11:51:02;;;;;;;12.90;5.22;;;10.00;85.80;;;;;;5046631;28;20036;-46
2022/01/29 11:53:50;;;;;;;12.30;3.97;;;10.00;85.70;;;;;;5030949;28;20032;-45
2022/01/29 11:56:29;;;;;;;8.13;3.50;;;10.10;85.30;;;;;;5030709;28;20049;-50
2022/01/29 11:59:19;;;;;;;7.72;2.97;;;10.20;85.40;;;;;;5031656;28;20029;-49
2022/01/29 12:01:58;;;;;;;6.75;3.10;;;10.20;85.20;;;;;;5031773;28;20048;-45
2022/01/29 12:04:58;;;;;;;10.13;3.50;;;10.20;85.40;;;;;;5029372;28;20041;-46
2022/01/29 12:10:08;;;;;;;8.10;2.80;;;10.10;85.40;;;;;;5035078;28;20034;-46
2022/01/29 12:12:39;;;;;;;8.18;2.35;;;10.20;85.20;;;;;;5035664;28;20056;-45
2022/01/29 12:15:10;;;;;;;7.25;2.50;;;10.20;84.90;;;;;;5035890;28;20037;-44
2022/01/29 12:17:50;;;;;;;9.63;3.88;;;10.30;84.50;;;;;;5041778;28;20485;-48
2022/01/29 12:20:21;;;;;;;7.15;2.67;;;10.50;84.20;;;;;;5034725;28;20041;-46
2022/01/29 12:22:47;;;;;;;8.48;2.25;;;10.60;83.70;;;;;;5035632;28;20347;-46
2022/01/29 12:25:16;;;;;;;10.15;3.25;;;10.70;83.60;;;;;;5034160;28;20125;-46
2022/01/29 12:27:49;;;;;;;6.37;2.53;;;10.60;83.20;;;;;;5033256;28;20060;-46
2022/01/29 12:30:24;;;;;;;8.75;2.53;;;10.60;83.50;;;;;;5034332;28;20342;-47
2022/01/29 12:33:00;;;;;;;5.75;3.08;;;10.60;83.60;;;;;;5034365;28;20021;-46
2022/01/29 12:35:38;;;;;;;7.85;2.40;;;10.60;83.40;;;;;;5033649;28;20029;-46
2022/01/29 12:38:06;;;;;;;9.90;2.30;;;10.70;83.40;;;;;;5034548;28;20033;-46
2022/01/29 12:40:38;;;;;;;13.60;3.42;;;10.60;83.10;;;;;;5035026;28;20084;-46
2022/01/29 12:43:19;;;;;;;9.30;2.53;;;10.60;83.30;;;;;;5034196;28;20021;-46
2022/01/29 12:45:44;;;;;;;6.40;2.83;;;10.60;83.50;;;;;;5031417;28;20121;-46
2022/01/29 12:48:11;;;;;;;24.00;11.95;;;10.70;84.10;;;;;;5034546;28;20546;-46
2022/01/29 12:50:38;;;;;;;15.45;6.10;;;10.60;83.30;;;;;;5034795;28;20026;-46
2022/01/29 12:53:06;;;;;;;10.48;2.38;;;10.60;83.40;;;;;;5034184;28;20017;-46
2022/01/29 12:55:34;;;;;;;10.82;2.95;;;10.70;83.10;;;;;;5026986;28;20564;-47
2022/01/29 12:58:00;;;;;;;11.13;2.15;;;10.60;83.40;;;;;;5016997;28;20041;-47
2022/01/29 13:00:25;;;;;;;11.38;2.70;;;10.50;83.70;;;;;;5019905;28;20034;-46